Time;durP1;ratioP1;P1;durP2;ratioP2;P2;SDS_P1;SDS_P2;PMS_P1;PMS_P2;Temp;Humidity;BMP_temperature;BMP_pressure;BME280_temperature;BME280_humidity;BME280_pressure;Samples;Min_cycle;Max_cycle;Signal;HPM_P1;HPM_P2
2023/05/21 00:01:04;;;;;;;18.50;16.87;;;16.70;1.00;;;;;;5067926;28;20469;-73
2023/05/21 00:03:34;;;;;;;19.67;17.97;;;16.70;1.00;;;;;;5058206;28;20508;-70
2023/05/21 00:06:02;;;;;;;19.47;17.80;;;16.70;1.00;;;;;;5068698;28;20459;-71
2023/05/21 00:08:29;;;;;;;20.53;18.60;;;16.70;1.00;;;;;;5060397;28;20488;-71
2023/05/21 00:10:56;;;;;;;17.53;16.00;;;16.60;1.00;;;;;;5070319;28;20470;-71
2023/05/21 00:13:23;;;;;;;18.63;17.07;;;16.60;1.00;;;;;;5063613;28;20464;-70
2023/05/21 00:15:50;;;;;;;19.07;17.50;;;16.60;1.00;;;;;;5064506;28;20459;-70
2023/05/21 00:18:17;;;;;;;19.27;17.57;;;16.60;1.00;;;;;;5064588;27;20562;-70
2023/05/21 00:20:46;;;;;;;21.43;19.53;;;16.60;1.00;;;;;;5065741;28;20463;-70
2023/05/21 00:23:17;;;;;;;20.07;18.27;;;16.60;1.00;;;;;;5069433;28;20557;-72
2023/05/21 00:25:44;;;;;;;19.37;17.77;;;16.60;1.00;;;;;;5063630;28;20944;-70
2023/05/21 00:28:11;;;;;;;19.47;17.97;;;16.60;1.00;;;;;;5067767;28;20475;-70
2023/05/21 00:30:38;;;;;;;20.13;18.40;;;16.50;1.00;;;;;;5060422;28;20890;-70
2023/05/21 00:33:06;;;;;;;20.40;18.70;;;16.50;1.00;;;;;;5068691;28;20526;-70
2023/05/21 00:35:33;;;;;;;18.00;16.70;;;16.40;1.00;;;;;;5062967;28;20456;-70
2023/05/21 00:38:02;;;;;;;19.20;17.57;;;16.40;1.00;;;;;;5063814;28;20501;-70
2023/05/21 00:40:30;;;;;;;19.53;17.73;;;16.40;1.00;;;;;;5066276;28;20461;-69
2023/05/21 00:42:57;;;;;;;18.70;17.00;;;16.40;1.00;;;;;;5062872;28;20494;-70
2023/05/21 00:45:24;;;;;;;18.50;17.00;;;16.40;1.00;;;;;;5067001;28;20452;-70
2023/05/21 00:47:53;;;;;;;21.30;19.60;;;16.30;1.00;;;;;;5067794;28;20451;-70
2023/05/21 00:50:21;;;;;;;20.03;18.10;;;16.30;1.00;;;;;;5061935;28;20463;-70
2023/05/21 00:52:49;;;;;;;19.57;17.70;;;16.20;1.00;;;;;;5070420;28;20472;-69
2023/05/21 00:55:18;;;;;;;19.30;17.50;;;16.20;1.00;;;;;;5063623;28;20462;-70
2023/05/21 00:57:45;;;;;;;19.70;18.10;;;16.30;1.00;;;;;;5069285;28;20459;-70
2023/05/21 01:00:15;;;;;;;20.53;18.97;;;16.30;1.00;;;;;;5061818;28;20464;-70
2023/05/21 01:02:43;;;;;;;20.50;18.50;;;16.30;1.00;;;;;;5066943;28;20510;-70
2023/05/21 01:05:10;;;;;;;20.00;18.20;;;16.20;1.00;;;;;;5064491;28;20539;-72
2023/05/21 01:07:40;;;;;;;20.97;19.07;;;16.20;1.00;;;;;;5070170;28;20448;-71
2023/05/21 01:10:09;;;;;;;20.20;18.40;;;16.20;1.00;;;;;;5063797;28;20529;-70
2023/05/21 01:12:39;;;;;;;19.00;17.27;;;16.20;1.00;;;;;;5063255;28;20889;-70
2023/05/21 01:15:09;;;;;;;19.17;17.30;;;16.20;1.00;;;;;;5063538;28;20451;-69
2023/05/21 01:17:37;;;;;;;21.30;19.40;;;16.20;1.00;;;;;;5064900;28;21044;-69
2023/05/21 01:20:09;;;;;;;19.47;17.80;;;16.10;1.00;;;;;;5064111;28;20455;-70
2023/05/21 01:22:38;;;;;;;20.17;18.33;;;16.10;1.00;;;;;;5065304;28;20481;-70
2023/05/21 01:25:07;;;;;;;21.07;19.03;;;16.10;1.00;;;;;;5064447;28;20490;-70
2023/05/21 01:27:34;;;;;;;21.53;19.53;;;16.10;1.00;;;;;;5065035;28;20454;-70
2023/05/21 01:30:02;;;;;;;19.90;18.30;;;16.10;1.00;;;;;;5066747;28;20566;-70
2023/05/21 01:32:36;;;;;;;21.50;19.60;;;16.10;1.00;;;;;;5068000;28;20553;-70
2023/05/21 01:35:09;;;;;;;21.00;19.13;;;16.10;1.00;;;;;;5069293;28;20541;-70
2023/05/21 01:37:44;;;;;;;20.47;18.40;;;16.10;1.00;;;;;;5062937;28;20546;-70
2023/05/21 01:40:17;;;;;;;20.00;18.13;;;16.10;1.00;;;;;;5064402;28;20951;-70
2023/05/21 01:42:46;;;;;;;20.03;18.40;;;16.10;1.00;;;;;;5065263;28;20499;-70
2023/05/21 01:45:15;;;;;;;22.40;20.30;;;16.00;1.00;;;;;;5059933;28;20590;-69
2023/05/21 01:47:47;;;;;;;22.23;20.30;;;16.00;1.00;;;;;;5065713;28;20650;-70
2023/05/21 01:50:15;;;;;;;21.73;19.90;;;16.00;1.00;;;;;;5059602;28;20460;-70
2023/05/21 01:52:49;;;;;;;23.30;21.30;;;16.00;1.00;;;;;;5063967;28;20490;-70
2023/05/21 01:55:23;;;;;;;22.07;20.10;;;16.00;1.00;;;;;;5058931;28;20455;-70
2023/05/21 01:57:51;;;;;;;24.10;21.13;;;15.90;1.00;;;;;;5060774;28;20558;-70
2023/05/21 02:00:19;;;;;;;23.40;21.10;;;15.90;1.00;;;;;;5075040;28;20456;-70
2023/05/21 02:02:46;;;;;;;22.20;20.30;;;15.90;1.00;;;;;;5066002;28;20909;-70
2023/05/21 02:05:13;;;;;;;21.90;20.00;;;15.90;1.00;;;;;;5069452;28;20459;-69
2023/05/21 02:07:40;;;;;;;22.70;20.53;;;15.90;1.00;;;;;;5066388;28;20475;-70
2023/05/21 02:10:08;;;;;;;23.00;21.10;;;15.90;1.00;;;;;;5068092;28;21001;-70
2023/05/21 02:12:36;;;;;;;22.33;20.53;;;15.90;1.00;;;;;;5060893;28;20468;-70
2023/05/21 02:15:04;;;;;;;23.13;21.13;;;15.90;1.00;;;;;;5062034;27;21036;-70
2023/05/21 02:17:32;;;;;;;24.20;21.93;;;15.90;1.00;;;;;;5061648;28;20555;-70
2023/05/21 02:20:07;;;;;;;22.80;20.80;;;15.80;1.00;;;;;;5060465;28;20486;-70
2023/05/21 02:22:37;;;;;;;23.30;21.10;;;15.80;1.00;;;;;;5056560;28;20459;-70
2023/05/21 02:25:06;;;;;;;23.37;21.23;;;15.80;1.00;;;;;;5065949;28;20452;-70
2023/05/21 02:27:33;;;;;;;24.73;22.53;;;15.80;1.00;;;;;;5065890;28;20470;-70
2023/05/21 02:30:02;;;;;;;25.77;23.27;;;15.70;1.00;;;;;;5064187;28;20554;-70
2023/05/21 02:32:30;;;;;;;23.63;21.33;;;15.70;1.00;;;;;;5058622;28;20484;-70
2023/05/21 02:34:58;;;;;;;24.33;22.10;;;15.70;1.00;;;;;;5062062;28;20547;-70
2023/05/21 02:37:26;;;;;;;23.43;21.20;;;15.70;1.00;;;;;;5066695;28;20856;-70
2023/05/21 02:39:53;;;;;;;24.87;22.87;;;15.60;1.00;;;;;;5059143;28;20462;-70
2023/05/21 02:42:21;;;;;;;23.80;21.70;;;15.70;1.00;;;;;;5060451;28;20515;-71
2023/05/21 02:44:49;;;;;;;24.70;22.60;;;15.70;1.00;;;;;;5061929;28;20545;-71
2023/05/21 02:47:17;;;;;;;24.30;21.80;;;15.60;1.00;;;;;;5065741;28;20455;-70
2023/05/21 02:49:44;;;;;;;25.17;22.97;;;15.60;1.00;;;;;;5061969;28;20471;-71
2023/05/21 02:52:11;;;;;;;25.83;23.27;;;15.70;1.00;;;;;;5062385;28;20539;-70
2023/05/21 02:54:38;;;;;;;25.03;22.83;;;15.60;1.00;;;;;;5064077;28;20510;-69
2023/05/21 02:57:06;;;;;;;25.73;23.43;;;15.60;1.00;;;;;;5060863;28;20514;-70
2023/05/21 02:59:33;;;;;;;24.00;22.00;;;15.60;1.00;;;;;;5063284;28;20960;-70
2023/05/21 03:02:02;;;;;;;27.10;24.60;;;15.50;1.00;;;;;;5063198;28;20476;-69
2023/05/21 03:04:37;;;;;;;25.07;22.87;;;15.50;1.00;;;;;;5057528;28;20461;-70
2023/05/21 03:07:08;;;;;;;27.20;24.80;;;15.50;1.00;;;;;;5065086;28;20925;-70
2023/05/21 03:09:35;;;;;;;26.50;23.97;;;15.50;1.00;;;;;;5063557;28;20463;-69
2023/05/21 03:12:02;;;;;;;25.50;23.20;;;15.50;1.00;;;;;;5061057;28;20558;-69
2023/05/21 03:14:29;;;;;;;28.73;26.17;;;15.50;1.00;;;;;;5065826;28;20497;-69
2023/05/21 03:16:57;;;;;;;27.80;25.20;;;15.50;1.00;;;;;;5067327;28;20558;-69
2023/05/21 03:19:24;;;;;;;26.03;23.83;;;15.50;1.00;;;;;;5060608;28;20503;-71
2023/05/21 03:21:53;;;;;;;29.07;26.33;;;15.40;1.00;;;;;;5063725;28;20472;-69
2023/05/21 03:24:20;;;;;;;28.27;25.77;;;15.40;1.00;;;;;;5066978;28;20459;-69
2023/05/21 03:26:49;;;;;;;28.07;25.57;;;15.40;1.00;;;;;;5065455;28;20483;-69
2023/05/21 03:29:16;;;;;;;28.10;25.60;;;15.40;1.00;;;;;;5063587;28;20890;-69
2023/05/21 03:31:43;;;;;;;30.23;27.63;;;15.40;1.00;;;;;;5063147;28;20470;-70
2023/05/21 03:34:09;;;;;;;27.77;25.43;;;15.40;1.00;;;;;;5064928;28;20462;-69
2023/05/21 03:36:36;;;;;;;28.27;25.67;;;15.40;1.00;;;;;;5064686;28;20530;-69
2023/05/21 03:39:06;;;;;;;29.17;26.57;;;15.50;1.00;;;;;;5064240;28;20536;-69
2023/05/21 03:41:33;;;;;;;29.17;26.50;;;15.50;1.00;;;;;;5065108;28;20493;-70
2023/05/21 03:44:01;;;;;;;27.53;24.93;;;15.50;1.00;;;;;;5063928;28;20466;-70
2023/05/21 03:46:28;;;;;;;30.30;27.53;;;15.40;1.00;;;;;;5066793;28;20460;-70
2023/05/21 03:48:56;;;;;;;30.63;27.90;;;15.40;1.00;;;;;;5066955;28;20496;-70
2023/05/21 03:51:24;;;;;;;28.50;25.90;;;15.40;1.00;;;;;;5066129;28;20474;-69
2023/05/21 03:53:51;;;;;;;29.93;27.23;;;15.40;1.00;;;;;;5071724;28;21864;-70
2023/05/21 03:56:21;;;;;;;35.23;32.13;;;15.40;1.00;;;;;;5065847;28;20491;-70
2023/05/21 03:58:48;;;;;;;30.03;27.47;;;15.40;1.00;;;;;;5064608;28;20463;-70
2023/05/21 04:01:16;;;;;;;29.77;27.17;;;15.40;1.00;;;;;;5062053;27;20997;-70
2023/05/21 04:03:43;;;;;;;29.03;26.43;;;15.50;1.00;;;;;;5062037;28;20582;-69
2023/05/21 04:06:10;;;;;;;29.63;27.03;;;15.60;1.00;;;;;;5059205;28;20555;-70
2023/05/21 04:08:37;;;;;;;29.97;27.37;;;15.70;1.00;;;;;;5063916;28;20513;-69
2023/05/21 04:11:04;;;;;;;29.57;27.13;;;15.80;1.00;;;;;;5066417;28;20448;-70
2023/05/21 04:13:32;;;;;;;28.30;25.90;;;15.80;1.00;;;;;;5063410;28;20513;-71
2023/05/21 04:15:59;;;;;;;29.10;26.60;;;15.90;1.00;;;;;;5064707;28;20794;-70
2023/05/21 04:18:27;;;;;;;29.47;26.97;;;15.90;1.00;;;;;;5064468;28;20490;-71
2023/05/21 04:20:54;;;;;;;29.17;26.37;;;16.00;1.00;;;;;;5063237;28;20478;-70
2023/05/21 04:23:24;;;;;;;30.17;27.43;;;16.10;1.00;;;;;;5064042;28;20582;-70
2023/05/21 04:25:51;;;;;;;31.97;28.93;;;16.10;1.00;;;;;;5068128;28;20470;-70
2023/05/21 04:28:19;;;;;;;29.20;26.67;;;16.00;1.00;;;;;;5065852;28;20460;-70
2023/05/21 04:30:50;;;;;;;29.63;27.00;;;16.10;1.00;;;;;;5066153;28;20930;-70
2023/05/21 04:33:19;;;;;;;29.20;26.80;;;16.20;1.00;;;;;;5066221;28;20562;-70
2023/05/21 04:35:49;;;;;;;29.83;27.53;;;16.30;1.00;;;;;;5065038;28;20459;-70
2023/05/21 04:38:18;;;;;;;29.43;26.93;;;16.40;1.00;;;;;;5064888;28;20455;-70
2023/05/21 04:40:45;;;;;;;29.17;26.57;;;16.40;1.00;;;;;;5061683;28;20478;-70
2023/05/21 04:43:15;;;;;;;28.33;26.03;;;16.40;1.00;;;;;;5064359;28;20459;-70
2023/05/21 04:45:43;;;;;;;28.70;26.30;;;16.50;1.00;;;;;;5056201;28;20456;-71
2023/05/21 04:48:14;;;;;;;28.53;25.83;;;16.60;1.00;;;;;;5047915;28;20556;-70
2023/05/21 04:50:41;;;;;;;27.67;25.37;;;16.70;1.00;;;;;;5054638;28;20459;-71
2023/05/21 04:53:08;;;;;;;29.17;26.67;;;16.70;1.00;;;;;;5064609;28;20538;-70
2023/05/21 04:55:38;;;;;;;27.87;25.50;;;16.80;1.00;;;;;;5064756;28;20451;-71
2023/05/21 04:58:05;;;;;;;28.77;26.37;;;16.90;1.00;;;;;;5062555;28;20515;-71
2023/05/21 05:00:33;;;;;;;27.37;25.03;;;16.90;1.00;;;;;;5066918;28;20817;-70
2023/05/21 05:03:02;;;;;;;27.43;24.93;;;17.00;1.00;;;;;;5065618;28;20892;-70
2023/05/21 05:05:31;;;;;;;28.27;25.77;;;17.00;1.00;;;;;;5064573;28;20463;-68
2023/05/21 05:07:58;;;;;;;29.40;26.90;;;17.10;1.00;;;;;;5066907;28;20461;-69
2023/05/21 05:10:25;;;;;;;27.73;25.23;;;17.20;1.00;;;;;;5061306;28;20474;-69
2023/05/21 05:12:52;;;;;;;28.10;25.73;;;17.30;1.00;;;;;;5061574;28;20478;-70
2023/05/21 05:15:19;;;;;;;26.57;24.17;;;17.40;1.00;;;;;;5063130;28;20492;-68
2023/05/21 05:17:47;;;;;;;28.83;26.43;;;17.50;1.00;;;;;;5063946;28;20458;-70
2023/05/21 05:20:14;;;;;;;28.00;25.27;;;17.60;1.00;;;;;;5064096;28;20492;-69
2023/05/21 05:22:42;;;;;;;27.97;25.40;;;17.70;1.00;;;;;;5064899;28;20871;-69
2023/05/21 05:25:10;;;;;;;28.63;26.07;;;17.70;1.00;;;;;;5063106;28;20626;-70
2023/05/21 05:27:36;;;;;;;28.00;25.63;;;17.70;1.00;;;;;;5066402;28;20502;-69
2023/05/21 05:30:04;;;;;;;28.60;26.00;;;17.70;1.00;;;;;;5062824;28;20999;-68
2023/05/21 05:32:31;;;;;;;28.40;26.00;;;17.70;1.00;;;;;;5061487;28;20520;-68
2023/05/21 05:34:58;;;;;;;29.27;26.90;;;17.80;1.00;;;;;;5067182;28;20518;-69
2023/05/21 05:37:25;;;;;;;25.73;23.53;;;17.90;1.00;;;;;;5067532;28;20554;-69
2023/05/21 05:39:53;;;;;;;27.90;25.50;;;18.10;1.00;;;;;;5063937;28;20480;-69
2023/05/21 05:42:20;;;;;;;27.43;25.07;;;18.10;1.00;;;;;;5065379;28;20607;-70
2023/05/21 05:44:47;;;;;;;26.37;24.10;;;18.10;1.00;;;;;;5064954;28;21047;-69
2023/05/21 05:47:14;;;;;;;28.00;25.30;;;18.10;1.00;;;;;;5066902;28;20465;-69
2023/05/21 05:49:41;;;;;;;27.07;24.80;;;18.20;1.00;;;;;;5065016;28;20918;-70
2023/05/21 05:52:08;;;;;;;25.60;23.50;;;18.40;1.00;;;;;;5065737;28;20969;-71
2023/05/21 05:54:35;;;;;;;26.67;24.40;;;18.50;1.00;;;;;;5064135;28;20461;-69
2023/05/21 05:57:04;;;;;;;27.17;24.97;;;18.60;1.00;;;;;;5067403;28;20843;-68
2023/05/21 05:59:32;;;;;;;25.70;23.40;;;18.60;1.00;;;;;;5066679;28;20981;-69
2023/05/21 06:01:59;;;;;;;26.23;24.13;;;18.90;1.00;;;;;;5065536;28;20852;-68
2023/05/21 06:04:28;;;;;;;26.70;24.40;;;19.10;1.00;;;;;;5061460;28;20547;-68
2023/05/21 06:06:56;;;;;;;26.07;23.67;;;19.30;1.00;;;;;;5065660;28;20456;-69
2023/05/21 06:09:23;;;;;;;26.30;23.97;;;19.40;1.00;;;;;;5065733;28;20514;-69
2023/05/21 06:11:50;;;;;;;26.17;23.87;;;19.50;1.00;;;;;;5062250;28;20550;-69
2023/05/21 06:14:18;;;;;;;24.77;22.70;;;19.50;1.00;;;;;;5067362;28;20471;-69
2023/05/21 06:16:45;;;;;;;25.57;23.27;;;19.70;1.00;;;;;;5066372;28;20546;-70
2023/05/21 06:19:13;;;;;;;25.90;23.60;;;19.80;1.00;;;;;;5064471;28;20519;-69
2023/05/21 06:21:40;;;;;;;26.37;24.17;;;19.80;1.00;;;;;;5062007;28;20495;-70
2023/05/21 06:24:07;;;;;;;24.80;22.70;;;19.70;1.00;;;;;;5069964;28;20561;-69
2023/05/21 06:26:35;;;;;;;25.93;23.83;;;19.70;1.00;;;;;;5045618;28;21380;-69
2023/05/21 06:29:03;;;;;;;22.93;21.00;;;19.80;1.00;;;;;;5062157;28;20479;-69
2023/05/21 06:31:32;;;;;;;24.50;22.40;;;20.00;1.00;;;;;;5066549;28;20487;-69
2023/05/21 06:33:59;;;;;;;26.27;23.90;;;20.20;1.00;;;;;;5063004;28;20465;-69
2023/05/21 06:36:29;;;;;;;23.80;22.00;;;20.00;1.00;;;;;;5066634;28;20462;-69
2023/05/21 06:38:56;;;;;;;24.37;22.37;;;19.90;1.00;;;;;;5065056;28;20485;-69
2023/05/21 06:41:23;;;;;;;23.77;21.87;;;19.90;1.00;;;;;;5065087;28;21017;-69
2023/05/21 06:43:50;;;;;;;24.40;22.40;;;20.00;1.00;;;;;;5068094;28;20568;-70
2023/05/21 06:46:17;;;;;;;23.47;21.40;;;20.20;1.00;;;;;;5066364;28;20871;-69
2023/05/21 06:48:46;;;;;;;23.07;21.07;;;20.30;1.00;;;;;;5068827;28;20482;-69
2023/05/21 06:51:13;;;;;;;22.80;20.90;;;20.20;1.00;;;;;;5063525;28;20443;-69
2023/05/21 06:53:40;;;;;;;22.80;20.90;;;20.20;1.00;;;;;;5066218;28;20967;-69
2023/05/21 06:56:07;;;;;;;23.70;21.80;;;20.30;1.00;;;;;;5062766;28;20465;-70
2023/05/21 06:58:36;;;;;;;21.80;19.97;;;20.20;1.00;;;;;;5063540;28;20798;-70
2023/05/21 07:01:06;;;;;;;23.53;21.53;;;20.20;1.00;;;;;;5069733;28;20473;-70
2023/05/21 07:03:33;;;;;;;21.60;19.80;;;20.20;1.00;;;;;;5066047;28;20844;-70
2023/05/21 07:06:02;;;;;;;24.33;22.03;;;20.20;1.00;;;;;;5071659;28;20475;-69
2023/05/21 07:08:29;;;;;;;23.03;21.03;;;20.10;1.00;;;;;;5062101;28;20504;-70
2023/05/21 07:10:56;;;;;;;22.93;20.93;;;20.00;1.00;;;;;;5067290;28;20494;-70
2023/05/21 07:13:26;;;;;;;23.93;21.93;;;20.10;1.00;;;;;;5064041;28;20496;-70
2023/05/21 07:15:52;;;;;;;22.93;21.03;;;20.10;1.00;;;;;;5066823;28;20551;-70
2023/05/21 07:18:19;;;;;;;22.40;20.33;;;20.20;1.00;;;;;;5068303;28;20965;-70
2023/05/21 07:20:46;;;;;;;22.20;20.20;;;20.30;1.00;;;;;;5062604;28;20977;-70
2023/05/21 07:23:15;;;;;;;22.80;20.90;;;20.40;1.00;;;;;;5063422;28;20578;-70
2023/05/21 07:25:42;;;;;;;22.63;20.93;;;20.30;1.00;;;;;;5063758;28;20456;-70
2023/05/21 07:28:09;;;;;;;21.60;19.70;;;20.60;1.00;;;;;;5063156;28;20485;-68
2023/05/21 07:30:36;;;;;;;20.93;19.00;;;20.80;1.00;;;;;;5064813;28;21026;-69
2023/05/21 07:33:03;;;;;;;21.87;20.07;;;20.90;1.00;;;;;;5066887;28;20992;-69
2023/05/21 07:35:29;;;;;;;25.00;23.10;;;21.00;1.00;;;;;;5065817;28;20938;-69
2023/05/21 07:37:56;;;;;;;20.37;18.67;;;21.30;1.00;;;;;;5065847;28;20492;-69
2023/05/21 07:40:25;;;;;;;20.50;18.60;;;21.50;1.00;;;;;;5061169;28;20525;-69
2023/05/21 07:42:52;;;;;;;20.73;18.83;;;21.50;1.00;;;;;;5065370;28;20495;-69
2023/05/21 07:45:19;;;;;;;19.27;17.77;;;21.70;1.00;;;;;;5066145;28;20469;-69
2023/05/21 07:47:46;;;;;;;19.40;17.77;;;21.80;1.00;;;;;;5065369;28;20563;-69
2023/05/21 07:50:13;;;;;;;20.63;18.93;;;22.00;1.00;;;;;;5065973;28;20460;-69
2023/05/21 07:52:40;;;;;;;20.90;19.20;;;22.20;1.00;;;;;;5068336;28;21034;-70
2023/05/21 07:55:09;;;;;;;20.40;18.80;;;22.30;1.00;;;;;;5064894;28;20460;-70
2023/05/21 07:57:37;;;;;;;20.00;18.20;;;22.40;1.00;;;;;;5068458;28;20466;-68
2023/05/21 08:00:07;;;;;;;18.30;16.80;;;22.50;1.00;;;;;;5064316;28;20514;-70
2023/05/21 08:02:35;;;;;;;18.93;17.20;;;22.80;1.00;;;;;;5068267;28;20559;-69
2023/05/21 08:05:01;;;;;;;18.37;16.77;;;22.90;1.00;;;;;;5062192;28;20889;-69
2023/05/21 08:07:30;;;;;;;18.30;16.80;;;23.00;1.00;;;;;;5060573;28;20993;-70
2023/05/21 08:09:57;;;;;;;18.00;16.50;;;23.10;1.00;;;;;;5060959;28;20498;-69
2023/05/21 08:12:24;;;;;;;16.87;15.57;;;23.20;1.00;;;;;;5062134;28;20516;-69
2023/05/21 08:14:53;;;;;;;19.40;17.70;;;23.30;1.00;;;;;;5063061;28;20453;-70
2023/05/21 08:17:20;;;;;;;17.93;16.43;;;23.30;1.00;;;;;;5061137;28;20535;-70
2023/05/21 08:19:47;;;;;;;17.50;16.10;;;23.40;1.00;;;;;;5066483;28;20527;-69
2023/05/21 08:22:14;;;;;;;17.73;16.33;;;23.50;1.00;;;;;;5064992;28;20495;-69
2023/05/21 08:24:41;;;;;;;17.10;15.70;;;23.70;1.00;;;;;;5066892;28;20881;-69
2023/05/21 08:27:08;;;;;;;18.13;16.63;;;23.90;1.00;;;;;;5059429;28;20498;-70
2023/05/21 08:29:35;;;;;;;18.47;16.87;;;24.00;1.00;;;;;;5063570;28;20474;-71
2023/05/21 08:32:03;;;;;;;17.27;15.87;;;24.20;1.00;;;;;;5065688;28;20493;-69
2023/05/21 08:34:31;;;;;;;17.87;16.10;;;24.40;1.00;;;;;;5065428;28;20884;-69
2023/05/21 08:36:58;;;;;;;16.30;15.00;;;24.50;1.00;;;;;;5068667;28;20480;-69
2023/05/21 08:39:25;;;;;;;16.33;14.93;;;24.70;1.00;;;;;;5064428;28;20475;-71
2023/05/21 08:41:57;;;;;;;16.57;15.13;;;24.70;1.00;;;;;;5061994;28;20463;-69
2023/05/21 08:44:27;;;;;;;15.57;14.37;;;24.70;1.00;;;;;;5060320;28;20544;-69
2023/05/21 08:46:57;;;;;;;16.40;15.03;;;24.80;1.00;;;;;;5062107;28;20495;-70
2023/05/21 08:49:30;;;;;;;14.50;13.17;;;24.90;1.00;;;;;;5062769;28;21026;-69
2023/05/21 08:51:58;;;;;;;15.00;13.70;;;25.10;1.00;;;;;;5066931;28;20514;-69
2023/05/21 08:54:26;;;;;;;14.67;13.57;;;25.00;1.00;;;;;;5064666;28;20488;-69
2023/05/21 08:56:55;;;;;;;15.03;13.90;;;25.10;1.00;;;;;;5062209;28;20889;-69
2023/05/21 08:59:22;;;;;;;13.13;12.03;;;25.30;1.00;;;;;;5056675;28;20499;-69
2023/05/21 09:01:50;;;;;;;14.73;13.57;;;25.40;1.00;;;;;;5063567;28;20468;-69
2023/05/21 09:04:18;;;;;;;14.90;13.80;;;25.60;1.00;;;;;;5061192;28;20489;-69
2023/05/21 09:06:46;;;;;;;14.80;13.73;;;25.70;1.00;;;;;;5067494;28;21018;-69
2023/05/21 09:09:26;;;;;;;14.27;12.97;;;25.80;1.00;;;;;;5064510;28;20465;-69
2023/05/21 09:11:53;;;;;;;13.73;12.43;;;25.80;1.00;;;;;;5061937;28;20549;-69
2023/05/21 09:14:23;;;;;;;14.10;13.00;;;25.90;1.00;;;;;;5065302;28;20505;-70
2023/05/21 09:16:50;;;;;;;14.70;13.60;;;26.10;1.00;;;;;;5064020;28;20517;-70
2023/05/21 09:19:17;;;;;;;14.17;13.10;;;26.00;1.00;;;;;;5064443;28;20469;-70
2023/05/21 09:21:44;;;;;;;13.77;12.47;;;26.20;1.00;;;;;;5060635;28;20986;-69
2023/05/21 09:24:13;;;;;;;14.23;12.93;;;26.10;1.00;;;;;;5065282;28;20551;-69
2023/05/21 09:26:43;;;;;;;13.37;12.13;;;26.40;1.00;;;;;;5066398;28;20561;-69
2023/05/21 09:29:10;;;;;;;13.67;12.47;;;27.00;1.00;;;;;;5062330;28;20463;-70
2023/05/21 09:31:45;;;;;;;13.80;12.80;;;27.70;1.00;;;;;;5066063;28;20534;-69
2023/05/21 09:34:13;;;;;;;12.40;11.50;;;28.10;1.00;;;;;;5055858;28;21107;-70
2023/05/21 09:36:40;;;;;;;13.40;12.40;;;28.60;1.00;;;;;;5059839;28;20846;-69
2023/05/21 09:39:10;;;;;;;13.23;12.03;;;29.30;1.00;;;;;;5062542;28;20894;-69
2023/05/21 09:41:41;;;;;;;12.13;10.90;;;29.80;1.00;;;;;;5063873;28;20463;-69
2023/05/21 09:44:10;;;;;;;12.40;11.40;;;29.60;1.00;;;;;;5060839;28;20893;-70
2023/05/21 09:46:41;;;;;;;12.33;11.40;;;30.00;1.00;;;;;;5060819;28;20510;-70
2023/05/21 09:49:23;;;;;;;12.47;11.53;;;30.30;1.00;;;;;;5068197;28;20597;-70
2023/05/21 09:51:50;;;;;;;12.60;11.70;;;30.30;1.00;;;;;;5062668;28;20992;-69
2023/05/21 09:54:17;;;;;;;14.90;13.70;;;30.40;1.00;;;;;;5063865;28;20459;-69
2023/05/21 09:56:46;;;;;;;12.90;11.70;;;30.20;1.00;;;;;;5062511;28;20558;-69
2023/05/21 09:59:13;;;;;;;11.17;10.40;;;31.20;1.00;;;;;;5060124;28;20491;-70
2023/05/21 10:01:40;;;;;;;11.20;10.40;;;31.70;1.00;;;;;;5063099;28;20544;-70
2023/05/21 10:04:08;;;;;;;11.40;10.50;;;31.90;1.00;;;;;;5066814;28;20626;-70
2023/05/21 10:06:41;;;;;;;11.40;10.60;;;32.10;1.00;;;;;;5059999;28;20463;-70
2023/05/21 10:09:11;;;;;;;11.07;10.07;;;32.30;1.00;;;;;;5063668;28;20501;-70
2023/05/21 10:11:43;;;;;;;11.23;10.30;;;32.40;1.00;;;;;;5062325;28;20547;-70
2023/05/21 10:14:18;;;;;;;12.00;11.10;;;31.70;1.00;;;;;;5061578;28;20614;-70
2023/05/21 10:16:47;;;;;;;10.80;10.00;;;32.20;1.00;;;;;;5067420;28;20975;-70
2023/05/21 10:19:16;;;;;;;10.83;9.90;;;32.20;1.00;;;;;;5066736;28;20458;-70
2023/05/21 10:21:43;;;;;;;11.97;11.10;;;32.60;1.00;;;;;;5061293;28;20558;-69
2023/05/21 10:24:11;;;;;;;11.37;10.50;;;32.80;1.00;;;;;;5065633;28;20487;-68
2023/05/21 10:26:42;;;;;;;11.47;10.57;;;32.20;1.00;;;;;;5057073;28;20497;-69
2023/05/21 10:29:12;;;;;;;11.17;10.27;;;32.50;1.00;;;;;;5063630;28;20514;-69
2023/05/21 10:31:40;;;;;;;10.60;9.90;;;32.80;1.00;;;;;;5064852;28;20495;-69
2023/05/21 10:34:07;;;;;;;12.30;11.37;;;33.20;1.00;;;;;;5063607;28;20466;-69
2023/05/21 10:36:36;;;;;;;10.53;9.73;;;33.80;1.00;;;;;;5058683;28;20571;-69
2023/05/21 10:39:04;;;;;;;10.60;9.77;;;34.10;1.00;;;;;;5049651;28;20492;-70
2023/05/21 10:41:39;;;;;;;10.47;9.77;;;33.50;1.00;;;;;;5034425;28;20513;-68
2023/05/21 10:44:18;;;;;;;11.30;10.37;;;34.20;1.00;;;;;;5062913;28;20752;-69
2023/05/21 10:47:10;;;;;;;10.20;9.40;;;33.90;1.00;;;;;;5064371;28;20983;-70
2023/05/21 10:50:01;;;;;;;10.37;9.57;;;35.30;1.00;;;;;;5063964;28;20549;-69
2023/05/21 10:52:49;;;;;;;8.73;7.93;;;35.80;1.00;;;;;;5060586;28;20869;-70
2023/05/21 10:55:29;;;;;;;9.37;8.77;;;35.80;1.00;;;;;;5061886;28;20560;-70
2023/05/21 10:58:29;;;;;;;9.27;8.57;;;35.40;1.00;;;;;;5068526;28;21088;-69
2023/05/21 11:00:59;;;;;;;8.10;7.50;;;35.80;1.00;;;;;;5060164;28;20494;-70
2023/05/21 11:03:27;;;;;;;9.63;8.93;;;36.10;1.00;;;;;;5064027;28;20475;-70
2023/05/21 11:05:56;;;;;;;9.73;8.87;;;35.40;1.00;;;;;;5067154;28;20926;-70
2023/05/21 11:08:24;;;;;;;9.10;8.50;;;35.30;1.00;;;;;;5063193;28;21036;-70
2023/05/21 11:10:56;;;;;;;10.03;9.03;;;34.60;1.00;;;;;;5063776;28;20452;-70
2023/05/21 11:13:24;;;;;;;9.67;8.67;;;33.30;1.00;;;;;;5058265;28;20465;-70
2023/05/21 11:16:07;;;;;;;9.53;8.90;;;32.50;1.00;;;;;;5062590;28;20491;-70
2023/05/21 11:19:00;;;;;;;10.00;9.20;;;33.10;1.00;;;;;;5059810;28;20541;-70
2023/05/21 11:21:33;;;;;;;8.70;7.90;;;32.90;1.00;;;;;;5061008;28;21031;-70
2023/05/21 11:24:03;;;;;;;9.37;8.57;;;32.70;1.00;;;;;;5047619;28;20463;-70
2023/05/21 11:26:47;;;;;;;9.23;8.57;;;32.50;1.00;;;;;;5057850;28;20831;-70
2023/05/21 11:29:15;;;;;;;9.67;8.40;;;31.50;1.00;;;;;;5064692;28;21086;-69
2023/05/21 11:31:48;;;;;;;8.97;8.33;;;31.20;1.00;;;;;;5061467;28;20582;-70
2023/05/21 11:34:20;;;;;;;8.30;7.80;;;31.70;1.00;;;;;;5063308;28;20460;-72
2023/05/21 11:36:49;;;;;;;9.17;8.40;;;32.00;1.00;;;;;;5062350;28;20906;-71
2023/05/21 11:39:20;;;;;;;8.67;7.93;;;32.50;1.00;;;;;;5046402;28;20482;-69
2023/05/21 11:41:52;;;;;;;9.03;8.30;;;33.60;1.00;;;;;;5063313;28;20560;-69
2023/05/21 11:44:21;;;;;;;9.60;8.80;;;34.40;1.00;;;;;;5065765;28;20517;-70
2023/05/21 11:46:52;;;;;;;8.53;7.93;;;34.50;1.00;;;;;;5065756;28;20530;-70
2023/05/21 11:49:21;;;;;;;8.30;7.73;;;34.40;1.00;;;;;;5068399;28;20481;-68
2023/05/21 11:51:49;;;;;;;9.10;8.50;;;34.60;1.00;;;;;;5066376;28;20451;-69
2023/05/21 11:54:16;;;;;;;8.80;8.10;;;35.10;1.00;;;;;;5066561;28;20593;-69
2023/05/21 11:56:43;;;;;;;8.90;8.27;;;35.60;1.00;;;;;;5067503;28;20460;-68
2023/05/21 11:59:15;;;;;;;8.07;7.37;;;35.80;1.00;;;;;;5063585;28;20944;-69
2023/05/21 12:01:43;;;;;;;7.40;6.90;;;36.30;1.00;;;;;;5066626;28;20448;-68
2023/05/21 12:04:12;;;;;;;8.30;7.60;;;37.30;1.00;;;;;;5068720;28;20485;-70
2023/05/21 12:06:42;;;;;;;7.83;7.23;;;37.50;1.00;;;;;;5067561;28;20458;-69
2023/05/21 12:09:09;;;;;;;7.70;7.03;;;38.30;1.00;;;;;;5067863;28;20569;-69
2023/05/21 12:11:39;;;;;;;8.33;7.67;;;38.20;1.00;;;;;;5068665;28;20474;-69
2023/05/21 12:14:09;;;;;;;9.20;8.33;;;37.70;1.00;;;;;;5067593;28;20447;-69
2023/05/21 12:16:36;;;;;;;9.57;8.10;;;37.50;1.00;;;;;;5062021;28;20473;-70
2023/05/21 12:19:03;;;;;;;8.93;8.23;;;37.50;1.00;;;;;;5066805;28;20567;-70
2023/05/21 12:21:32;;;;;;;9.60;8.73;;;35.90;1.00;;;;;;5064532;28;20448;-69
2023/05/21 12:23:59;;;;;;;10.60;8.37;;;34.50;1.00;;;;;;5063494;28;20467;-70
2023/05/21 12:26:27;;;;;;;8.83;8.03;;;34.10;1.00;;;;;;5065971;28;20455;-70
2023/05/21 12:28:55;;;;;;;9.23;8.53;;;34.10;1.00;;;;;;5060999;28;20472;-70
2023/05/21 12:31:23;;;;;;;7.90;7.30;;;35.00;1.00;;;;;;5067619;28;20853;-70
2023/05/21 12:33:51;;;;;;;8.57;7.90;;;35.50;1.00;;;;;;5066949;28;20464;-71
2023/05/21 12:36:28;;;;;;;8.77;8.07;;;35.20;1.00;;;;;;5067723;28;21032;-70
2023/05/21 12:38:57;;;;;;;9.80;8.80;;;34.70;1.00;;;;;;5066452;28;20507;-69
2023/05/21 12:41:23;;;;;;;9.17;7.80;;;34.40;1.00;;;;;;5061400;28;20451;-69
2023/05/21 12:43:54;;;;;;;8.53;7.83;;;33.70;1.00;;;;;;5064769;28;20474;-70
2023/05/21 12:46:22;;;;;;;13.20;12.20;;;34.10;1.00;;;;;;5062095;28;20523;-70
2023/05/21 12:48:50;;;;;;;9.50;8.80;;;34.80;1.00;;;;;;5068012;28;20751;-70